Time;durP1;ratioP1;P1;durP2;ratioP2;P2;SDS_P1;SDS_P2;PMS_P1;PMS_P2;Temp;Humidity;BMP_temperature;BMP_pressure;BME280_temperature;BME280_humidity;BME280_pressure;Samples;Min_cycle;Max_cycle;Signal;HPM_P1;HPM_P2
2023/12/20 00:00:03;;;;;;;18.33;12.00;;;7.80;99.90;;;;;;5076083;28;20257;-48
2023/12/20 00:02:29;;;;;;;18.13;12.27;;;7.80;99.90;;;;;;5076147;28;20199;-47
2023/12/20 00:04:58;;;;;;;17.03;10.87;;;7.80;99.90;;;;;;5075943;28;20706;-48
2023/12/20 00:07:23;;;;;;;17.53;12.20;;;7.80;99.90;;;;;;5075627;28;20189;-48
2023/12/20 00:09:55;;;;;;;16.33;11.40;;;7.80;99.90;;;;;;5057694;28;20246;-48
2023/12/20 00:12:20;;;;;;;17.30;11.40;;;7.70;99.90;;;;;;5075909;28;20160;-49
2023/12/20 00:14:46;;;;;;;16.30;12.33;;;7.70;99.90;;;;;;5075830;28;20181;-48
2023/12/20 00:17:13;;;;;;;17.50;11.83;;;7.60;99.90;;;;;;5076007;28;20176;-49
2023/12/20 00:20:34;;;;;;;17.73;12.47;;;7.60;99.90;;;;;;5057483;28;20204;-47
2023/12/20 00:23:02;;;;;;;18.20;11.90;;;7.60;99.90;;;;;;5074261;28;20172;-47
2023/12/20 00:25:33;;;;;;;14.97;11.70;;;7.60;99.90;;;;;;5057547;28;20223;-49
2023/12/20 00:28:09;;;;;;;17.07;9.90;;;7.60;99.90;;;;;;5075396;28;20183;-47
2023/12/20 00:30:36;;;;;;;18.07;11.60;;;7.50;99.90;;;;;;5073525;28;20217;-48
2023/12/20 00:33:02;;;;;;;21.20;11.30;;;7.50;99.90;;;;;;5057499;28;20198;-47
2023/12/20 00:35:28;;;;;;;16.33;10.33;;;7.50;99.90;;;;;;5057739;28;20606;-48
2023/12/20 00:37:53;;;;;;;14.50;10.53;;;7.40;99.90;;;;;;5057632;28;20226;-50
2023/12/20 00:40:22;;;;;;;18.07;11.20;;;7.40;99.90;;;;;;5074994;28;20200;-48
2023/12/20 00:42:49;;;;;;;18.67;11.57;;;7.40;99.90;;;;;;5075313;28;20198;-48
2023/12/20 00:45:15;;;;;;;19.03;10.40;;;7.40;99.90;;;;;;5075466;28;20590;-48
2023/12/20 00:47:41;;;;;;;17.83;10.53;;;7.40;99.90;;;;;;5074868;28;20183;-48
2023/12/20 00:50:08;;;;;;;15.73;10.80;;;7.40;99.90;;;;;;5057481;28;20208;-48
2023/12/20 00:52:36;;;;;;;23.50;10.17;;;7.50;99.90;;;;;;5057403;28;20187;-47
2023/12/20 00:55:07;;;;;;;15.83;10.50;;;7.40;99.90;;;;;;5057436;28;20183;-49
2023/12/20 00:57:33;;;;;;;16.97;9.50;;;7.50;99.90;;;;;;5074806;28;20325;-48
2023/12/20 00:59:59;;;;;;;20.37;9.30;;;7.40;99.90;;;;;;5074799;28;20284;-48
2023/12/20 01:02:25;;;;;;;11.17;6.63;;;7.40;99.90;;;;;;5074711;28;20187;-47
2023/12/20 01:04:51;;;;;;;11.40;7.00;;;7.40;99.90;;;;;;5056640;28;20297;-47
2023/12/20 01:07:19;;;;;;;16.00;7.60;;;7.30;99.90;;;;;;5074423;28;20177;-48
2023/12/20 01:09:48;;;;;;;13.23;7.73;;;7.30;99.90;;;;;;5056534;28;20206;-47
2023/12/20 01:15:37;;;;;;;5.50;3.67;;;7.10;99.90;;;;;;5074388;28;20217;-49
2023/12/20 01:18:03;;;;;;;9.40;4.90;;;7.00;99.90;;;;;;5056262;28;20232;-47
2023/12/20 01:20:29;;;;;;;12.27;4.50;;;6.90;99.90;;;;;;5056693;28;20199;-48
2023/12/20 01:22:54;;;;;;;9.57;3.40;;;6.90;99.90;;;;;;5074064;28;20177;-48
2023/12/20 01:25:26;;;;;;;11.00;4.40;;;6.80;99.90;;;;;;5056383;28;20294;-47
2023/12/20 01:27:51;;;;;;;13.50;5.03;;;6.70;99.90;;;;;;5074424;28;20169;-48
2023/12/20 01:30:20;;;;;;;11.17;3.37;;;6.60;99.90;;;;;;5073794;28;20187;-46
2023/12/20 01:32:45;;;;;;;13.13;4.03;;;6.60;99.90;;;;;;5073813;28;20180;-46
2023/12/20 01:35:12;;;;;;;13.93;4.03;;;6.60;99.90;;;;;;5056179;28;20180;-48
2023/12/20 01:37:39;;;;;;;12.43;4.07;;;6.50;99.90;;;;;;5056318;28;20213;-47
2023/12/20 01:40:06;;;;;;;7.53;3.30;;;6.50;99.90;;;;;;5073789;28;20609;-47
2023/12/20 01:42:31;;;;;;;13.00;3.50;;;6.50;99.90;;;;;;5056127;28;20694;-47
2023/12/20 01:44:57;;;;;;;13.43;4.20;;;6.40;99.90;;;;;;5055921;28;20184;-46
2023/12/20 01:47:27;;;;;;;15.77;3.10;;;6.40;99.90;;;;;;5073883;28;20232;-48
2023/12/20 01:49:52;;;;;;;9.73;3.03;;;6.40;99.90;;;;;;5073525;28;20204;-48
2023/12/20 01:52:22;;;;;;;16.27;3.27;;;6.30;99.90;;;;;;5073889;28;20187;-48
2023/12/20 01:54:48;;;;;;;8.77;2.70;;;6.30;99.90;;;;;;5055675;28;20270;-47
2023/12/20 01:57:13;;;;;;;12.00;3.10;;;6.20;99.90;;;;;;5073623;28;20304;-46
2023/12/20 01:59:42;;;;;;;11.83;3.13;;;6.20;99.90;;;;;;5073898;28;20207;-47
2023/12/20 02:02:12;;;;;;;14.10;3.17;;;6.10;99.90;;;;;;5055948;28;20191;-48
2023/12/20 02:04:38;;;;;;;11.77;2.63;;;6.10;99.90;;;;;;5073771;28;20610;-47
2023/12/20 02:07:06;;;;;;;13.00;2.30;;;6.10;99.90;;;;;;5055771;28;20298;-48
2023/12/20 02:09:32;;;;;;;13.03;2.57;;;6.10;99.90;;;;;;5073493;28;20249;-47
2023/12/20 02:12:06;;;;;;;13.70;2.73;;;6.10;99.90;;;;;;5056708;28;20230;-48
2023/12/20 02:14:32;;;;;;;9.40;1.83;;;6.10;99.90;;;;;;5073521;28;20174;-47
2023/12/20 02:16:59;;;;;;;12.40;2.60;;;6.10;99.90;;;;;;5055480;28;20191;-46
2023/12/20 02:19:24;;;;;;;8.40;2.27;;;6.10;99.90;;;;;;5073543;28;20199;-47
2023/12/20 02:22:08;;;;;;;12.83;2.70;;;6.10;99.90;;;;;;5073661;28;20232;-47
2023/12/20 02:24:35;;;;;;;14.43;2.37;;;6.10;99.90;;;;;;5073081;28;20190;-48
2023/12/20 02:27:01;;;;;;;11.80;2.30;;;6.10;99.90;;;;;;5073262;28;20243;-47
2023/12/20 02:29:27;;;;;;;10.57;2.77;;;6.10;99.90;;;;;;5073530;28;20238;-47
2023/12/20 02:31:59;;;;;;;9.17;1.83;;;6.20;99.90;;;;;;5073180;28;20625;-47
2023/12/20 02:34:29;;;;;;;10.83;2.13;;;6.10;99.90;;;;;;5073663;28;20172;-48
2023/12/20 02:36:54;;;;;;;6.80;2.17;;;6.10;99.90;;;;;;5073591;28;20205;-49
2023/12/20 02:39:25;;;;;;;10.57;2.03;;;6.10;99.90;;;;;;5055787;28;20215;-48
2023/12/20 02:41:51;;;;;;;9.50;1.67;;;6.20;99.90;;;;;;5073528;28;20538;-47
2023/12/20 02:44:18;;;;;;;9.17;2.33;;;6.20;99.90;;;;;;5076504;28;20179;-47
2023/12/20 02:46:44;;;;;;;10.83;2.63;;;6.20;99.90;;;;;;5060135;28;20222;-47
2023/12/20 02:49:10;;;;;;;12.57;2.73;;;6.20;99.90;;;;;;5060392;28;20213;-48
2023/12/20 02:51:41;;;;;;;8.13;2.17;;;6.20;99.90;;;;;;5059380;28;20187;-48
2023/12/20 02:54:12;;;;;;;7.87;1.80;;;6.20;99.90;;;;;;5077274;28;20190;-48
2023/12/20 02:56:39;;;;;;;11.43;2.50;;;6.20;99.90;;;;;;5076882;28;20187;-49
2023/12/20 02:59:08;;;;;;;9.03;2.50;;;6.20;99.90;;;;;;5077221;28;20220;-48
2023/12/20 03:01:35;;;;;;;11.30;2.30;;;6.20;99.90;;;;;;5059825;28;20191;-48
2023/12/20 03:04:05;;;;;;;6.97;2.23;;;6.20;99.90;;;;;;5077402;28;20263;-48
2023/12/20 03:06:34;;;;;;;8.63;2.63;;;6.20;99.90;;;;;;5076592;28;20215;-50
2023/12/20 03:09:00;;;;;;;15.30;2.77;;;6.20;99.90;;;;;;5058860;28;20183;-48
2023/12/20 03:11:28;;;;;;;10.60;2.83;;;6.10;99.90;;;;;;5077073;28;20661;-48
2023/12/20 03:13:54;;;;;;;13.50;2.83;;;6.10;99.90;;;;;;5076560;28;20213;-47
2023/12/20 03:16:21;;;;;;;10.23;2.60;;;6.10;99.90;;;;;;5076460;28;20560;-47
2023/12/20 03:18:49;;;;;;;10.23;2.30;;;6.10;99.90;;;;;;5077279;28;20176;-45
2023/12/20 03:21:16;;;;;;;8.37;2.40;;;6.10;99.90;;;;;;5076673;28;20738;-44
2023/12/20 03:23:41;;;;;;;14.43;2.97;;;6.10;99.90;;;;;;5076740;28;20202;-43
2023/12/20 03:26:08;;;;;;;17.20;3.20;;;6.10;99.90;;;;;;5076171;28;20227;-42
2023/12/20 03:28:34;;;;;;;7.80;2.53;;;6.10;99.90;;;;;;5076253;28;20549;-44
2023/12/20 03:31:00;;;;;;;10.00;2.80;;;6.10;99.90;;;;;;5041940;28;20210;-42
2023/12/20 03:33:37;;;;;;;8.13;2.60;;;6.10;99.90;;;;;;5075721;28;20258;-44
2023/12/20 03:36:04;;;;;;;9.60;3.03;;;6.00;99.90;;;;;;5076230;28;20377;-42
2023/12/20 03:38:30;;;;;;;11.90;2.90;;;6.00;99.90;;;;;;5076493;28;20183;-42
2023/12/20 03:40:55;;;;;;;9.40;2.83;;;6.00;99.90;;;;;;5076626;28;20653;-42
2023/12/20 03:43:21;;;;;;;11.40;3.13;;;6.00;99.90;;;;;;5058567;28;20270;-42
2023/12/20 03:45:47;;;;;;;11.97;2.97;;;6.00;99.90;;;;;;5076098;28;20199;-45
2023/12/20 03:48:22;;;;;;;6.83;2.80;;;6.00;99.90;;;;;;5076319;28;20550;-43
2023/12/20 03:50:48;;;;;;;9.47;2.80;;;6.00;99.90;;;;;;5075927;28;20244;-43
2023/12/20 03:53:22;;;;;;;8.80;2.77;;;5.90;99.90;;;;;;5076398;28;20191;-43
2023/12/20 03:55:49;;;;;;;12.03;2.93;;;5.90;99.90;;;;;;5075900;28;20167;-43
2023/12/20 03:58:21;;;;;;;9.67;3.00;;;5.90;99.90;;;;;;5058239;28;20188;-41
2023/12/20 04:00:48;;;;;;;12.47;3.37;;;5.90;99.90;;;;;;5076228;28;20606;-43
2023/12/20 04:03:17;;;;;;;23.13;3.97;;;5.90;99.90;;;;;;5075915;28;20618;-41
2023/12/20 04:05:44;;;;;;;16.83;3.07;;;5.90;99.90;;;;;;5075777;28;20200;-42
2023/12/20 04:08:09;;;;;;;15.13;3.57;;;5.90;99.90;;;;;;5076169;28;20189;-47
2023/12/20 04:10:37;;;;;;;15.47;3.47;;;5.90;99.90;;;;;;5041161;28;20204;-44
2023/12/20 04:13:04;;;;;;;9.60;3.00;;;5.90;99.90;;;;;;5058150;28;20180;-43
2023/12/20 04:15:34;;;;;;;13.93;2.67;;;5.80;99.90;;;;;;5075533;28;20644;-43
2023/12/20 04:18:03;;;;;;;9.17;2.90;;;5.80;99.90;;;;;;5076103;28;20179;-43
2023/12/20 04:20:32;;;;;;;13.40;3.97;;;5.70;99.90;;;;;;5075444;28;20301;-43
2023/12/20 04:22:58;;;;;;;13.23;3.20;;;5.70;99.90;;;;;;5075709;28;20187;-43
2023/12/20 04:25:27;;;;;;;7.63;2.33;;;5.70;99.90;;;;;;5057510;28;20273;-43
2023/12/20 04:27:52;;;;;;;16.07;3.43;;;5.70;99.90;;;;;;5057577;28;20212;-43
2023/12/20 04:30:22;;;;;;;18.03;3.60;;;5.80;99.90;;;;;;5041085;28;20307;-42
2023/12/20 04:32:47;;;;;;;14.33;2.77;;;5.70;99.90;;;;;;5076078;28;20210;-44
2023/12/20 04:35:16;;;;;;;8.67;2.37;;;5.70;99.90;;;;;;5065188;28;20182;-43
2023/12/20 04:37:43;;;;;;;11.57;3.63;;;5.70;99.90;;;;;;5086232;28;20184;-43
2023/12/20 04:40:09;;;;;;;9.63;3.03;;;5.60;99.90;;;;;;5085273;28;20290;-44
2023/12/20 04:42:35;;;;;;;13.90;3.63;;;5.60;99.90;;;;;;5064273;28;20211;-42
2023/12/20 04:45:00;;;;;;;13.53;3.00;;;5.60;99.90;;;;;;5057639;28;20240;-43
2023/12/20 04:47:26;;;;;;;9.37;3.23;;;5.70;99.90;;;;;;5075337;28;20264;-44
2023/12/20 04:49:53;;;;;;;14.80;3.27;;;5.60;99.90;;;;;;5057694;28;20211;-43
2023/12/20 04:52:18;;;;;;;14.13;3.73;;;5.60;99.90;;;;;;5074956;28;20180;-42
2023/12/20 04:54:48;;;;;;;7.90;2.57;;;5.60;99.90;;;;;;5075229;28;20222;-43
2023/12/20 04:57:17;;;;;;;14.97;2.90;;;5.60;99.90;;;;;;5074908;28;20179;-43
2023/12/20 04:59:43;;;;;;;15.20;3.90;;;5.60;99.90;;;;;;5075160;28;20213;-43
2023/12/20 05:02:14;;;;;;;15.27;3.23;;;5.60;99.90;;;;;;5057537;28;20183;-42
2023/12/20 05:04:43;;;;;;;14.20;3.73;;;5.60;99.90;;;;;;5075119;28;20175;-42
2023/12/20 05:07:30;;;;;;;16.97;4.07;;;5.60;99.90;;;;;;5056279;28;20253;-43
2023/12/20 05:09:55;;;;;;;13.30;3.33;;;5.70;99.90;;;;;;5075695;28;20198;-44
2023/12/20 05:12:27;;;;;;;13.37;2.90;;;5.60;99.90;;;;;;5076244;28;20536;-44
2023/12/20 05:14:54;;;;;;;9.53;3.00;;;5.60;99.90;;;;;;5075252;28;20178;-44
2023/12/20 05:17:26;;;;;;;12.57;3.53;;;5.70;99.90;;;;;;5074569;28;20238;-45
2023/12/20 05:19:55;;;;;;;13.77;3.47;;;5.70;99.90;;;;;;5056912;28;20210;-45
2023/12/20 05:22:24;;;;;;;14.27;2.70;;;5.70;99.90;;;;;;5056709;28;20184;-45
2023/12/20 05:24:50;;;;;;;11.37;3.53;;;5.70;99.90;;;;;;5074199;28;20218;-43
2023/12/20 05:27:19;;;;;;;9.70;2.87;;;5.70;99.90;;;;;;5056517;28;20567;-45
2023/12/20 05:29:48;;;;;;;11.50;3.60;;;5.70;99.90;;;;;;5073879;28;20207;-45
2023/12/20 05:32:14;;;;;;;9.53;3.10;;;5.70;99.90;;;;;;5074332;28;20192;-43
2023/12/20 05:34:39;;;;;;;24.40;3.80;;;5.80;99.90;;;;;;5055991;28;20208;-44
2023/12/20 05:37:05;;;;;;;13.83;4.10;;;5.80;99.90;;;;;;5073436;28;20265;-44
2023/12/20 05:39:52;;;;;;;16.23;3.30;;;5.80;99.90;;;;;;5055765;28;20195;-42
2023/12/20 05:42:31;;;;;;;13.57;3.10;;;5.80;99.90;;;;;;5073176;28;20168;-43
2023/12/20 05:44:57;;;;;;;13.20;3.93;;;5.80;99.90;;;;;;5073009;28;20209;-43
2023/12/20 05:47:23;;;;;;;9.70;2.77;;;5.80;99.90;;;;;;5073090;28;20183;-43
2023/12/20 05:49:50;;;;;;;9.03;2.70;;;5.80;99.90;;;;;;5055212;28;20606;-43
2023/12/20 05:52:17;;;;;;;6.10;2.13;;;5.80;99.90;;;;;;5073528;28;20179;-43
2023/12/20 05:54:42;;;;;;;12.30;3.13;;;5.80;99.90;;;;;;5073181;28;20266;-43
2023/12/20 05:57:08;;;;;;;18.47;3.53;;;5.90;99.90;;;;;;5072756;28;20288;-43
2023/12/20 05:59:36;;;;;;;10.30;2.40;;;5.80;99.90;;;;;;5072814;28;20738;-42
2023/12/20 06:02:04;;;;;;;10.97;2.37;;;5.80;99.90;;;;;;5072668;28;20262;-42
2023/12/20 06:04:33;;;;;;;14.97;3.00;;;5.90;99.90;;;;;;5072680;28;20662;-42
2023/12/20 06:06:59;;;;;;;13.00;2.70;;;5.90;99.90;;;;;;5072939;28;20215;-44
2023/12/20 06:09:27;;;;;;;6.00;2.13;;;5.90;99.90;;;;;;5073193;28;20683;-41
2023/12/20 06:11:52;;;;;;;12.03;3.03;;;5.90;99.90;;;;;;5072782;28;20189;-43
2023/12/20 06:14:21;;;;;;;13.27;2.87;;;5.90;99.90;;;;;;5072630;28;20260;-42
2023/12/20 06:16:49;;;;;;;20.23;3.23;;;5.90;99.90;;;;;;5072695;28;20187;-43
2023/12/20 06:19:18;;;;;;;23.83;3.57;;;5.90;99.90;;;;;;5072388;28;20274;-43
2023/12/20 06:21:44;;;;;;;12.00;3.07;;;5.90;99.90;;;;;;5072551;28;20257;-42
2023/12/20 06:24:11;;;;;;;13.63;3.00;;;5.90;99.90;;;;;;5072469;28;20184;-42
2023/12/20 06:26:40;;;;;;;10.43;3.00;;;6.00;99.90;;;;;;5026180;28;1318486;-42
2023/12/20 06:29:06;;;;;;;11.17;3.67;;;6.00;99.90;;;;;;5072260;28;20167;-42
2023/12/20 06:31:32;;;;;;;15.33;3.50;;;5.90;99.90;;;;;;5073521;28;20180;-43
2023/12/20 06:34:00;;;;;;;16.03;3.00;;;5.90;99.90;;;;;;5073332;28;20168;-42
2023/12/20 06:36:27;;;;;;;13.27;3.90;;;5.90;99.90;;;;;;5056219;28;20187;-45
2023/12/20 06:38:53;;;;;;;16.90;3.87;;;5.90;99.90;;;;;;5073444;28;20369;-45
2023/12/20 06:41:24;;;;;;;9.13;3.57;;;5.90;99.90;;;;;;5073338;28;20207;-43
2023/12/20 06:43:53;;;;;;;8.93;1.97;;;5.90;99.90;;;;;;5073089;28;20168;-44
2023/12/20 06:46:20;;;;;;;11.63;3.70;;;5.90;99.90;;;;;;5072180;28;20219;-44
2023/12/20 06:48:47;;;;;;;11.77;3.73;;;6.00;99.90;;;;;;5074256;28;20206;-44
2023/12/20 06:51:17;;;;;;;10.80;2.97;;;6.00;99.90;;;;;;5055245;28;20229;-44
2023/12/20 06:53:42;;;;;;;10.20;2.70;;;6.00;99.90;;;;;;5074367;28;20170;-44
2023/12/20 06:56:10;;;;;;;13.00;3.33;;;6.00;99.90;;;;;;5055618;28;20669;-42
2023/12/20 06:58:37;;;;;;;14.70;4.20;;;6.00;99.90;;;;;;5073163;28;20175;-43
2023/12/20 07:01:04;;;;;;;13.10;3.73;;;6.00;99.90;;;;;;5055328;28;20242;-43
2023/12/20 07:03:29;;;;;;;7.30;2.67;;;6.00;99.90;;;;;;5055279;28;20194;-43
2023/12/20 07:05:58;;;;;;;7.70;3.53;;;6.00;99.90;;;;;;5072864;28;20207;-41
2023/12/20 07:08:27;;;;;;;5.63;2.20;;;6.00;99.90;;;;;;5073352;28;20199;-42
2023/12/20 07:10:53;;;;;;;9.67;3.27;;;6.00;99.90;;;;;;5055326;28;20222;-45
2023/12/20 07:13:22;;;;;;;13.63;2.90;;;5.90;99.90;;;;;;5073203;28;20187;-42
2023/12/20 07:15:50;;;;;;;14.00;4.07;;;5.90;99.90;;;;;;5073783;28;20202;-45
2023/12/20 07:18:18;;;;;;;12.83;3.23;;;5.90;99.90;;;;;;5073235;28;20175;-43
2023/12/20 07:20:48;;;;;;;13.80;3.23;;;5.90;99.90;;;;;;5072902;28;20210;-43
2023/12/20 07:26:44;;;;;;;10.63;3.13;;;5.90;99.90;;;;;;5072759;28;20226;-45
2023/12/20 07:29:10;;;;;;;25.47;4.63;;;5.90;99.90;;;;;;5056234;28;20561;-43
2023/12/20 07:31:38;;;;;;;14.10;4.43;;;5.80;99.90;;;;;;5059408;28;20171;-42
2023/12/20 07:34:03;;;;;;;12.77;3.27;;;5.80;99.90;;;;;;5076844;28;20183;-42
2023/12/20 07:36:35;;;;;;;13.03;4.23;;;5.80;99.90;;;;;;5075578;28;20238;-45
2023/12/20 07:39:04;;;;;;;17.63;4.60;;;5.70;99.90;;;;;;5076210;28;20225;-43
2023/12/20 07:41:32;;;;;;;20.43;4.63;;;5.70;99.90;;;;;;5058438;28;20197;-43
2023/12/20 07:43:59;;;;;;;15.30;4.17;;;5.70;99.90;;;;;;5076407;28;20236;-41
2023/12/20 07:46:24;;;;;;;11.17;3.63;;;5.70;99.90;;;;;;5058420;28;20573;-43
2023/12/20 07:48:50;;;;;;;9.97;3.00;;;5.60;99.90;;;;;;5076245;28;20175;-43
2023/12/20 07:51:16;;;;;;;14.77;3.30;;;5.60;99.90;;;;;;5076100;28;20523;-48
2023/12/20 07:53:44;;;;;;;13.00;3.90;;;5.60;99.90;;;;;;5058102;28;20675;-48
2023/12/20 07:56:16;;;;;;;15.63;4.40;;;5.60;99.90;;;;;;5075845;28;20176;-47
2023/12/20 07:58:42;;;;;;;6.30;2.33;;;5.60;99.90;;;;;;5075916;28;20601;-47
2023/12/20 08:01:11;;;;;;;9.47;3.30;;;5.60;99.90;;;;;;5075793;28;20209;-47
2023/12/20 08:03:38;;;;;;;17.00;4.30;;;5.50;99.90;;;;;;5076025;28;20183;-46
2023/12/20 08:06:07;;;;;;;10.40;3.53;;;5.50;99.90;;;;;;5075463;28;20577;-47
2023/12/20 08:08:36;;;;;;;11.73;3.60;;;5.50;99.90;;;;;;5058126;28;20218;-47
2023/12/20 08:11:03;;;;;;;15.00;3.17;;;5.50;99.90;;;;;;5075702;28;20569;-48
2023/12/20 08:13:30;;;;;;;10.50;3.43;;;5.50;99.90;;;;;;5075899;28;20181;-46
2023/12/20 08:15:56;;;;;;;8.67;3.70;;;5.50;99.90;;;;;;5076183;28;20221;-48
2023/12/20 08:21:47;;;;;;;9.97;2.83;;;5.50;99.90;;;;;;5075631;28;20163;-47
2023/12/20 08:24:12;;;;;;;18.80;4.60;;;5.50;99.90;;;;;;5075942;28;20543;-46
2023/12/20 08:26:40;;;;;;;13.80;3.30;;;5.50;99.90;;;;;;5057480;28;20256;-47
2023/12/20 08:29:49;;;;;;;14.07;3.30;;;5.50;99.90;;;;;;5057549;28;20231;-46
2023/12/20 08:32:18;;;;;;;12.60;3.40;;;5.50;99.90;;;;;;5075563;28;20192;-47
2023/12/20 08:34:44;;;;;;;8.57;2.63;;;5.50;99.90;;;;;;5075329;28;20270;-48
2023/12/20 08:37:09;;;;;;;13.30;3.17;;;5.50;99.90;;;;;;5057335;28;20214;-47
2023/12/20 08:39:35;;;;;;;9.57;2.60;;;5.60;99.90;;;;;;5075462;28;20190;-47
2023/12/20 08:42:01;;;;;;;14.10;3.57;;;5.60;99.90;;;;;;5074205;28;20203;-47
2023/12/20 08:44:26;;;;;;;13.07;3.60;;;5.50;99.90;;;;;;5057191;28;20183;-47
2023/12/20 08:46:52;;;;;;;13.57;3.17;;;5.60;99.90;;;;;;5075161;28;20199;-47
2023/12/20 08:49:22;;;;;;;15.23;3.43;;;5.60;99.90;;;;;;5057032;28;20202;-49
2023/12/20 08:51:51;;;;;;;8.57;2.53;;;5.60;99.90;;;;;;5075607;28;20163;-48
2023/12/20 08:54:29;;;;;;;13.93;3.63;;;5.70;99.90;;;;;;5074952;28;20253;-46
2023/12/20 08:56:54;;;;;;;7.90;2.77;;;5.80;99.90;;;;;;5075263;28;20182;-45
2023/12/20 08:59:21;;;;;;;14.80;3.17;;;5.80;99.90;;;;;;5074746;28;20249;-47
2023/12/20 09:01:48;;;;;;;6.47;1.97;;;5.80;99.90;;;;;;5074998;28;20187;-47
2023/12/20 09:04:14;;;;;;;7.67;2.60;;;5.80;99.90;;;;;;5057201;28;20186;-46
2023/12/20 09:06:39;;;;;;;12.10;3.63;;;5.90;99.90;;;;;;5056777;28;20717;-48
2023/12/20 09:09:13;;;;;;;12.30;2.53;;;5.90;99.90;;;;;;5074649;28;20179;-48
2023/12/20 09:11:39;;;;;;;15.93;3.50;;;5.90;99.90;;;;;;5074734;28;20690;-42
2023/12/20 09:14:05;;;;;;;9.57;3.00;;;6.00;99.90;;;;;;5056670;28;20180;-42
2023/12/20 09:16:31;;;;;;;9.97;2.83;;;6.00;99.90;;;;;;5074353;28;20209;-47
2023/12/20 09:18:59;;;;;;;17.17;3.43;;;6.00;99.90;;;;;;5074717;28;20216;-43
2023/12/20 09:21:24;;;;;;;13.07;3.33;;;6.00;99.90;;;;;;5074513;28;20179;-44
2023/12/20 09:23:50;;;;;;;13.30;2.93;;;6.00;99.90;;;;;;5074321;28;20666;-42
2023/12/20 09:26:16;;;;;;;4.53;1.93;;;6.00;99.90;;;;;;5074683;28;20680;-41
2023/12/20 09:28:41;;;;;;;13.70;3.80;;;6.10;99.90;;;;;;5073426;28;20745;-44
2023/12/20 09:31:07;;;;;;;9.40;2.70;;;6.10;99.90;;;;;;5074278;28;20198;-42
2023/12/20 09:33:38;;;;;;;6.50;2.17;;;6.10;99.90;;;;;;5056663;28;20199;-43
2023/12/20 09:36:05;;;;;;;11.20;2.87;;;6.10;99.90;;;;;;5074265;28;20171;-44
2023/12/20 09:38:32;;;;;;;6.67;2.20;;;6.10;99.90;;;;;;5056990;28;20205;-43
2023/12/20 09:40:59;;;;;;;5.23;1.67;;;6.20;99.90;;;;;;5074024;28;20201;-44
2023/12/20 09:43:29;;;;;;;6.83;1.70;;;6.20;99.90;;;;;;5055979;28;20204;-43
2023/12/20 09:46:02;;;;;;;10.20;2.80;;;6.30;99.90;;;;;;5075200;28;20210;-43
2023/12/20 09:48:28;;;;;;;16.10;3.00;;;6.30;99.90;;;;;;5074334;28;20195;-43
2023/12/20 09:50:54;;;;;;;5.77;1.50;;;6.40;99.90;;;;;;5056424;28;20200;-45
2023/12/20 09:53:29;;;;;;;13.77;3.60;;;6.40;99.90;;;;;;5073574;28;20179;-43
2023/12/20 09:55:58;;;;;;;10.63;2.27;;;6.40;99.90;;;;;;5057053;28;20159;-43
2023/12/20 09:58:24;;;;;;;4.27;1.63;;;6.50;99.90;;;;;;5074891;28;20257;-44
2023/12/20 10:00:51;;;;;;;6.80;2.27;;;6.50;99.90;;;;;;5056419;28;20237;-43
2023/12/20 10:03:30;;;;;;;13.27;3.07;;;6.60;99.90;;;;;;5073589;28;20234;-42
2023/12/20 10:05:58;;;;;;;10.13;2.33;;;6.60;99.90;;;;;;5055707;28;20236;-44
2023/12/20 10:08:27;;;;;;;9.60;2.50;;;6.50;99.90;;;;;;5071957;28;20196;-44
2023/12/20 10:10:53;;;;;;;11.50;3.80;;;6.60;99.90;;;;;;5073981;28;20214;-43
2023/12/20 10:13:21;;;;;;;10.70;2.30;;;6.60;99.90;;;;;;5073741;28;20246;-43
2023/12/20 10:15:49;;;;;;;10.90;3.23;;;6.60;99.90;;;;;;5055934;28;20192;-44
2023/12/20 10:18:16;;;;;;;18.90;2.97;;;6.60;99.90;;;;;;5055556;28;20187;-44
2023/12/20 10:20:42;;;;;;;8.97;2.80;;;6.60;99.90;;;;;;5073364;28;20191;-44
2023/12/20 10:23:08;;;;;;;15.63;3.27;;;7.00;99.90;;;;;;5073425;28;20670;-43
2023/12/20 10:25:37;;;;;;;7.83;2.83;;;6.60;99.90;;;;;;5073409;28;20199;-42
2023/12/20 10:28:18;;;;;;;14.83;3.10;;;6.60;99.90;;;;;;5073360;28;20702;-43
2023/12/20 10:30:48;;;;;;;11.40;2.37;;;6.60;99.90;;;;;;5070971;28;20207;-43
2023/12/20 10:33:22;;;;;;;14.80;3.00;;;6.60;99.90;;;;;;5073552;28;20214;-43
2023/12/20 10:35:48;;;;;;;10.67;2.53;;;6.60;99.90;;;;;;5054985;28;20214;-43
2023/12/20 10:38:30;;;;;;;10.50;2.90;;;6.60;99.90;;;;;;5073794;28;20596;-42
2023/12/20 10:41:02;;;;;;;6.33;2.17;;;6.60;99.90;;;;;;5073470;28;20206;-43
2023/12/20 10:43:30;;;;;;;5.27;1.60;;;6.60;99.90;;;;;;5073254;28;20624;-43
2023/12/20 10:45:56;;;;;;;6.50;1.70;;;6.60;99.90;;;;;;5073502;28;20662;-43
2023/12/20 10:48:26;;;;;;;11.60;2.53;;;6.60;99.90;;;;;;5055785;28;20273;-42
2023/12/20 10:50:54;;;;;;;9.33;2.30;;;6.60;99.90;;;;;;5056174;28;20192;-42
2023/12/20 10:53:20;;;;;;;14.40;3.00;;;6.60;99.90;;;;;;5073192;28;20632;-43
2023/12/20 10:55:49;;;;;;;21.33;3.50;;;6.60;99.90;;;;;;5073853;28;20202;-44
2023/12/20 10:58:15;;;;;;;13.47;4.23;;;6.60;99.90;;;;;;5073177;28;20713;-42
2023/12/20 11:00:47;;;;;;;12.13;2.40;;;6.60;99.90;;;;;;5073183;28;20195;-43
2023/12/20 11:03:30;;;;;;;6.20;2.27;;;6.60;99.90;;;;;;5073649;28;20655;-43
2023/12/20 11:06:28;;;;;;;11.90;2.77;;;6.60;99.90;;;;;;5059189;28;20204;-42
2023/12/20 11:09:27;;;;;;;9.20;2.37;;;6.60;99.90;;;;;;5076904;28;20682;-43
2023/12/20 11:12:25;;;;;;;14.80;2.67;;;6.60;99.90;;;;;;5076825;28;20168;-43
2023/12/20 11:14:55;;;;;;;13.40;2.70;;;6.70;99.90;;;;;;5059635;28;20167;-43
2023/12/20 11:17:21;;;;;;;7.93;1.73;;;6.70;99.90;;;;;;5076953;28;20166;-43
2023/12/20 11:19:52;;;;;;;13.80;3.00;;;6.70;99.90;;;;;;5076766;28;20199;-42
2023/12/20 11:22:22;;;;;;;10.57;2.57;;;6.70;99.90;;;;;;5076624;28;20184;-43
2023/12/20 11:24:55;;;;;;;14.83;3.10;;;6.70;99.90;;;;;;5059180;28;20245;-45
2023/12/20 11:27:22;;;;;;;11.23;3.03;;;6.70;99.90;;;;;;5076823;28;20240;-44
2023/12/20 11:29:56;;;;;;;6.87;2.47;;;6.70;99.90;;;;;;5076825;28;20211;-43
2023/12/20 11:32:35;;;;;;;10.10;2.73;;;6.70;99.90;;;;;;5076585;28;20167;-44
2023/12/20 11:35:27;;;;;;;11.63;3.10;;;6.80;99.90;;;;;;5075985;28;20225;-43
2023/12/20 11:37:53;;;;;;;13.83;2.60;;;6.80;99.90;;;;;;5076846;28;20179;-43
2023/12/20 11:40:21;;;;;;;9.83;2.43;;;6.80;99.90;;;;;;5058676;28;20195;-44
2023/12/20 11:42:53;;;;;;;14.47;3.50;;;6.80;99.90;;;;;;5076748;28;20183;-43
2023/12/20 11:45:21;;;;;;;12.37;2.80;;;6.80;99.90;;;;;;5076484;28;20183;-43
2023/12/20 11:47:51;;;;;;;11.57;3.00;;;6.80;99.90;;;;;;5076633;28;20183;-43
2023/12/20 11:50:20;;;;;;;11.40;2.70;;;6.70;99.90;;;;;;5076245;28;20721;-44
2023/12/20 11:52:49;;;;;;;8.70;2.60;;;6.80;99.90;;;;;;5076488;28;20175;-43
2023/12/20 11:55:17;;;;;;;8.53;2.80;;;6.80;99.90;;;;;;5076306;28;20560;-43
2023/12/20 11:57:53;;;;;;;12.67;2.90;;;6.80;99.90;;;;;;5058704;28;20305;-44
2023/12/20 12:00:20;;;;;;;10.40;2.37;;;6.80;99.90;;;;;;5057923;28;20265;-44
2023/12/20 12:02:58;;;;;;;11.93;3.40;;;6.80;99.90;;;;;;5076594;28;20172;-43
2023/12/20 12:05:24;;;;;;;14.97;3.40;;;6.80;99.90;;;;;;5079819;28;20207;-45
2023/12/20 12:07:50;;;;;;;9.93;2.90;;;6.80;99.90;;;;;;5065630;28;20206;-43
2023/12/20 12:10:16;;;;;;;13.63;3.37;;;6.80;99.90;;;;;;5083484;28;20282;-43
2023/12/20 12:12:41;;;;;;;14.00;4.07;;;6.80;99.90;;;;;;5082209;28;20218;-43
2023/12/20 12:15:10;;;;;;;15.60;3.80;;;6.80;99.90;;;;;;5061738;28;20233;-43
2023/12/20 12:17:35;;;;;;;18.50;3.60;;;6.80;99.90;;;;;;5075758;28;20180;-45
2023/12/20 12:20:09;;;;;;;7.87;2.30;;;6.80;99.90;;;;;;5057967;28;20202;-44
2023/12/20 12:23:01;;;;;;;12.43;3.60;;;6.90;99.90;;;;;;5057635;28;20195;-43
2023/12/20 12:25:31;;;;;;;10.80;3.77;;;6.80;99.90;;;;;;5075681;28;20207;-46
2023/12/20 12:27:59;;;;;;;11.53;3.50;;;6.80;99.90;;;;;;5057404;28;20191;-44
2023/12/20 12:30:25;;;;;;;16.87;3.53;;;6.80;99.90;;;;;;5057575;28;20195;-43
2023/12/20 12:32:52;;;;;;;14.80;3.30;;;6.80;99.90;;;;;;5057754;28;20667;-43
2023/12/20 12:35:19;;;;;;;11.20;3.03;;;6.90;99.90;;;;;;5075635;28;20179;-44
2023/12/20 12:37:45;;;;;;;8.33;3.20;;;6.80;99.90;;;;;;5041522;28;20176;-45
2023/12/20 12:40:15;;;;;;;11.13;3.07;;;6.80;99.90;;;;;;5058309;28;20206;-43
2023/12/20 12:42:45;;;;;;;13.00;3.37;;;6.90;99.90;;;;;;5075886;28;20168;-43
2023/12/20 12:45:11;;;;;;;11.70;3.40;;;6.80;99.90;;;;;;5075309;28;20640;-43
2023/12/20 12:47:46;;;;;;;13.83;3.40;;;6.90;99.90;;;;;;5075319;28;20183;-45
2023/12/20 12:50:12;;;;;;;11.70;3.53;;;6.80;99.90;;;;;;5074972;28;20203;-42
2023/12/20 12:52:40;;;;;;;10.20;3.00;;;6.80;99.90;;;;;;5075839;28;20559;-43
2023/12/20 12:55:08;;;;;;;17.27;5.13;;;6.80;99.90;;;;;;5075402;28;20187;-43
2023/12/20 12:57:34;;;;;;;16.00;4.33;;;6.90;99.90;;;;;;5075230;28;20254;-42
2023/12/20 13:00:08;;;;;;;8.87;3.27;;;6.80;99.90;;;;;;5057029;28;20245;-43
2023/12/20 13:02:33;;;;;;;16.50;4.43;;;6.90;99.90;;;;;;5075281;28;20174;-43
2023/12/20 13:05:02;;;;;;;14.97;4.20;;;6.90;99.90;;;;;;5074991;28;20176;-42